Springerville, Arizona
Current Conditions -  °F | °C
As of 12:35 AM on Sunday 23 Nov 2014 (Local Time) from KJTC Reporting Station
Clear Clear  
Wind Chill: 32°   Ceiling: Unl
Heat Index: 43°   Visibility: 10mi
Dew Point:   Wind: 31mph
Humidity: 25%   Direction: 240°WSW
Pressure: 29.94"   Gusts: 43mph
Location:  34.13°N, 109.29°W
Report Text: KJTC 230735Z AUTO 24027G37KT 10SM CLR 06/M13 A2994 RMK AO2
Loading
Personal Weather Stations






























Interactive Weather Map New forecast layout! Learn more

10-Day Weather Forecast

Advertisements
Track Severe Weather on mobile